Wieston, Iowa
Current Conditions -  °F | °C
As of 12:15 AM on Sunday 21 Dec 2014 (Local Time) from KFOD Reporting Station
Overcast Overcast  
Wind Chill: 28°   Ceiling: 400
Heat Index: 34°   Visibility: 3mi
Dew Point: 30°   Wind: 7mph
Humidity: 87%   Direction: 170°S
Pressure: 30.05"   Gusts: NA
Location:  42.5162°N, 94.5018°W
Report Text: KFOD 210615Z AUTO 17006KT 3SM OVC004 01/M01 A3005 RMK AO1
Loading
Personal Weather Stations






























Interactive Weather Map New forecast layout! Learn more

10-Day Weather Forecast

Advertisements
Track Severe Weather on mobile